地図

経路データ

SID SEASON NUMBER BASIN SUBBASIN NAME ISO_TIME NATURE LAT LON WMO_WIND WMO_PRES WMO_AGENCY TRACK_TYPE DIST2LAND LANDFALL IFLAG USA_AGENCY USA_ATCF_ID USA_LAT USA_LON USA_RECORD USA_STATUS USA_WIND USA_PRES USA_SSHS USA_R34_NE USA_R34_SE USA_R34_SW USA_R34_NW USA_R50_NE USA_R50_SE USA_R50_SW USA_R50_NW USA_R64_NE USA_R64_SE USA_R64_SW USA_R64_NW USA_POCI USA_ROCI USA_RMW USA_EYE TOKYO_LAT TOKYO_LON TOKYO_GRADE TOKYO_WIND TOKYO_PRES TOKYO_R50_DIR TOKYO_R50_LONG TOKYO_R50_SHORT TOKYO_R30_DIR TOKYO_R30_LONG TOKYO_R30_SHORT TOKYO_LAND CMA_LAT CMA_LON CMA_CAT CMA_WIND CMA_PRES HKO_LAT HKO_LON HKO_CAT HKO_WIND HKO_PRES NEWDELHI_LAT NEWDELHI_LON NEWDELHI_GRADE NEWDELHI_WIND NEWDELHI_PRES NEWDELHI_CI NEWDELHI_DP NEWDELHI_POCI REUNION_LAT REUNION_LON REUNION_TYPE REUNION_WIND REUNION_PRES REUNION_TNUM REUNION_CI REUNION_RMW REUNION_R34_NE REUNION_R34_SE REUNION_R34_SW REUNION_R34_NW REUNION_R50_NE REUNION_R50_SE REUNION_R50_SW REUNION_R50_NW REUNION_R64_NE REUNION_R64_SE REUNION_R64_SW REUNION_R64_NW BOM_LAT BOM_LON BOM_TYPE BOM_WIND BOM_PRES BOM_TNUM BOM_CI BOM_RMW BOM_R34_NE BOM_R34_SE BOM_R34_SW BOM_R34_NW BOM_R50_NE BOM_R50_SE BOM_R50_SW BOM_R50_NW BOM_R64_NE BOM_R64_SE BOM_R64_SW BOM_R64_NW BOM_ROCI BOM_POCI BOM_EYE BOM_POS_METHOD BOM_PRES_METHOD NADI_LAT NADI_LON NADI_CAT NADI_WIND NADI_PRES WELLINGTON_LAT WELLINGTON_LON WELLINGTON_WIND WELLINGTON_PRES DS824_LAT DS824_LON DS824_STAGE DS824_WIND DS824_PRES TD9636_LAT TD9636_LON TD9636_STAGE TD9636_WIND TD9636_PRES TD9635_LAT TD9635_LON TD9635_WIND TD9635_PRES TD9635_ROCI NEUMANN_LAT NEUMANN_LON NEUMANN_CLASS NEUMANN_WIND NEUMANN_PRES MLC_LAT MLC_LON MLC_CLASS MLC_WIND MLC_PRES USA_GUST BOM_GUST BOM_GUST_PER REUNION_GUST REUNION_GUST_PER USA_SEAHGT USA_SEARAD_NE USA_SEARAD_SE USA_SEARAD_SW USA_SEARAD_NW STORM_SPEED STORM_DIR
1887080S11092 1887 7 SI WA NOT_NAMED 1887-03-21 06:00:00 NR -10.6000 92.1000 main 1248 1226 _____O________ -1 -10.6000 92.1000 99 9.90000 5 71
1887080S11092 1887 7 SI WA NOT_NAMED 1887-03-21 09:00:00 NR -10.5240 92.3246 main 1226 1213 _____P________ -1 -10.5240 92.3246 99 4 71
1887080S11092 1887 7 SI WA NOT_NAMED 1887-03-21 12:00:00 NR -10.4588 92.5167 main 1213 1198 _____P________ -1 -10.4588 92.5167 99 3 71
1887080S11092 1887 7 SI WA NOT_NAMED 1887-03-21 15:00:00 NR -10.4153 92.6446 main 1198 1191 _____P________ -1 -10.4153 92.6446 99 2 71
1887080S11092 1887 7 SI WA NOT_NAMED 1887-03-21 18:00:00 NR -10.4043 92.6765 main 1191 1191 _____P________ -1 -10.4043 92.6765 99 1 252
1887080S11092 1887 7 SI WA NOT_NAMED 1887-03-21 21:00:00 NR -10.4366 92.5805 main 1198 1198 _____P________ -1 -10.4366 92.5805 99 4 251
1887080S11092 1887 7 SI WA NOT_NAMED 1887-03-22 00:00:00 NR -10.5230 92.3244 main 1226 1226 _____P________ -1 -10.5230 92.3244 99 7 251
1887080S11092 1887 7 SI WA NOT_NAMED 1887-03-22 03:00:00 NR -10.6741 91.8754 main 1271 1271 _____P________ -1 -10.6741 91.8754 99 12 251
1887080S11092 1887 7 SI WA NOT_NAMED 1887-03-22 06:00:00 NR -10.9000 91.2000 main 1336 1336 _____O________ -1 -10.9000 91.2000 99 9.90000 17 251
1887080S11092 1887 7 SI WA NOT_NAMED 1887-03-22 09:00:00 NR -11.2053 90.2792 main 1426 1426 _____P________ -1 -11.2053 90.2792 99 21 251
1887080S11092 1887 7 SI MM NOT_NAMED 1887-03-22 12:00:00 NR -11.5741 89.1561 main 1541 1541 _____P________ -1 -11.5741 89.1561 99 25 252
1887080S11092 1887 7 SI MM NOT_NAMED 1887-03-22 15:00:00 NR -11.9857 87.8903 main 1674 1674 _____P________ -1 -11.9857 87.8903 99 27 252
1887080S11092 1887 7 SI MM NOT_NAMED 1887-03-22 18:00:00 NR -12.4193 86.5432 main 1818 1818 _____P________ -1 -12.4193 86.5432 99 28 252
1887080S11092 1887 7 SI MM NOT_NAMED 1887-03-22 21:00:00 NR -12.8554 85.1772 main 1963 1963 _____P________ -1 -12.8554 85.1772 99 28 252
1887080S11092 1887 7 SI MM NOT_NAMED 1887-03-23 00:00:00 NR -13.2754 83.8557 main 2101 2101 _____P________ -1 -13.2754 83.8557 99 26 252
1887080S11092 1887 7 SI MM NOT_NAMED 1887-03-23 03:00:00 NR -13.6621 82.6422 main 2206 2204 _____P________ -1 -13.6621 82.6422 99 23 252
1887080S11092 1887 7 SI MM NOT_NAMED 1887-03-23 06:00:00 NR -14.0000 81.6000 main 2232 2231 _____O________ -1 -14.0000 81.6000 99 9.90000 17 251
1887080S11092 1887 7 SI MM NOT_NAMED 1887-03-23 09:00:00 NR -14.2213 80.9487 main 2252 2252 _____P________ -1 -14.2213 80.9487 99 12 250
1887080S11092 1887 7 SI MM NOT_NAMED 1887-03-23 12:00:00 NR -14.4048 80.4477 main 2274 2274 _____P________ -1 -14.4048 80.4477 99 9 248
1887080S11092 1887 7 SI MM NOT_NAMED 1887-03-23 15:00:00 NR -14.5596 80.0702 main 2297 2297 _____P________ -1 -14.5596 80.0702 99 7 246
1887080S11092 1887 7 SI MM NOT_NAMED 1887-03-23 18:00:00 NR -14.6945 79.7895 main 2309 2309 _____P________ -1 -14.6945 79.7895 99 5 241
1887080S11092 1887 7 SI MM NOT_NAMED 1887-03-23 21:00:00 NR -14.8178 79.5788 main 2321 2321 _____P________ -1 -14.8178 79.5788 99 4 236
1887080S11092 1887 7 SI MM NOT_NAMED 1887-03-24 00:00:00 NR -14.9378 79.4115 main 2333 2333 _____P________ -1 -14.9378 79.4115 99 4 231
1887080S11092 1887 7 SI MM NOT_NAMED 1887-03-24 03:00:00 NR -15.0626 79.2609 main 2348 2324 _____P________ -1 -15.0626 79.2609 99 4 229
1887080S11092 1887 7 SI MM NOT_NAMED 1887-03-24 06:00:00 NR -15.2000 79.1000 reunion main 2324 2301 _____O________ -1 -15.2000 79.1000 99 9.90000 5 229
1887080S11092 1887 7 SI MM NOT_NAMED 1887-03-24 09:00:00 NR -15.3562 78.9073 main 2297 2274 _____P________ -1 -15.3562 78.9073 99 5 231
1887080S11092 1887 7 SI MM NOT_NAMED 1887-03-24 12:00:00 NR -15.5303 78.6821 main 2274 2236 _____P________ -1 -15.5303 78.6821 99 6 232
1887080S11092 1887 7 SI MM NOT_NAMED 1887-03-24 15:00:00 NR -15.7196 78.4287 main 2236 2210 _____P________ -1 -15.7196 78.4287 99 6 233
1887080S11092 1887 7 SI MM NOT_NAMED 1887-03-24 18:00:00 NR -15.9214 78.1518 main 2210 2173 _____P________ -1 -15.9214 78.1518 99 7 233
1887080S11092 1887 7 SI MM NOT_NAMED 1887-03-24 21:00:00 NR -16.1330 77.8559 main 2173 2136 _____P________ -1 -16.1330 77.8559 99 7 234
1887080S11092 1887 7 SI MM NOT_NAMED 1887-03-25 00:00:00 NR -16.3517 77.5456 main 2123 2086 _____P________ -1 -16.3517 77.5456 99 8 234
1887080S11092 1887 7 SI MM NOT_NAMED 1887-03-25 03:00:00 NR -16.5749 77.2254 main 2086 2050 _____P________ -1 -16.5749 77.2254 99 8 234
1887080S11092 1887 7 SI MM NOT_NAMED 1887-03-25 06:00:00 NR -16.8000 76.9000 reunion main 2050 _____O________ -1 -16.8000 76.9000 99 9.90000 8 234

IBTrACS Databaseについて

本データベースは、米国NOAAが公開する1842年以降の世界の熱帯低気圧のベストトラックデータアーカイブInternational Best Track Archive for Climate Stewardship (IBTrACS)を、ウェブで閲覧しやすい形式に変換したものです。

最終更新日:2021-12-08